sensor_id;sensor_type;location;lat;lon;timestamp;temperature;humidity
64634;DHT22;51043;52.406;9.690;2023-08-17T00:00:49;18.50;99.90
64634;DHT22;51043;52.406;9.690;2023-08-17T00:03:21;18.50;99.90
64634;DHT22;51043;52.406;9.690;2023-08-17T00:05:55;18.50;99.90
64634;DHT22;51043;52.406;9.690;2023-08-17T00:08:23;18.50;99.90
64634;DHT22;51043;52.406;9.690;2023-08-17T00:10:53;18.50;99.90
64634;DHT22;51043;52.406;9.690;2023-08-17T00:13:23;18.50;99.90
64634;DHT22;51043;52.406;9.690;2023-08-17T00:15:51;18.50;99.90
64634;DHT22;51043;52.406;9.690;2023-08-17T00:18:23;18.50;99.90
64634;DHT22;51043;52.406;9.690;2023-08-17T00:20:51;18.40;99.90
64634;DHT22;51043;52.406;9.690;2023-08-17T00:23:25;18.50;99.90
64634;DHT22;51043;52.406;9.690;2023-08-17T00:25:54;18.50;99.90
64634;DHT22;51043;52.406;9.690;2023-08-17T00:28:24;18.50;99.90
64634;DHT22;51043;52.406;9.690;2023-08-17T00:30:57;18.40;99.90
64634;DHT22;51043;52.406;9.690;2023-08-17T00:33:25;18.40;99.90
64634;DHT22;51043;52.406;9.690;2023-08-17T00:35:53;18.30;99.90
64634;DHT22;51043;52.406;9.690;2023-08-17T00:38:22;18.30;99.90
64634;DHT22;51043;52.406;9.690;2023-08-17T00:40:54;18.20;99.90
64634;DHT22;51043;52.406;9.690;2023-08-17T00:43:24;18.10;99.90
64634;DHT22;51043;52.406;9.690;2023-08-17T00:45:54;18.00;99.90
64634;DHT22;51043;52.406;9.690;2023-08-17T00:48:23;18.00;99.90
64634;DHT22;51043;52.406;9.690;2023-08-17T00:50:55;17.90;99.90
64634;DHT22;51043;52.406;9.690;2023-08-17T00:53:24;18.00;99.90
64634;DHT22;51043;52.406;9.690;2023-08-17T00:55:54;17.90;99.90
64634;DHT22;51043;52.406;9.690;2023-08-17T00:58:27;17.90;99.90
64634;DHT22;51043;52.406;9.690;2023-08-17T01:00:56;17.80;99.90
64634;DHT22;51043;52.406;9.690;2023-08-17T01:03:24;17.70;99.90
64634;DHT22;51043;52.406;9.690;2023-08-17T01:05:56;17.60;99.90
64634;DHT22;51043;52.406;9.690;2023-08-17T01:08:24;17.50;99.90
64634;DHT22;51043;52.406;9.690;2023-08-17T01:10:59;17.40;99.90
64634;DHT22;51043;52.406;9.690;2023-08-17T01:13:38;17.30;99.90
64634;DHT22;51043;52.406;9.690;2023-08-17T01:16:11;17.20;99.90
64634;DHT22;51043;52.406;9.690;2023-08-17T01:18:42;17.20;99.90
64634;DHT22;51043;52.406;9.690;2023-08-17T01:21:14;17.20;99.90
64634;DHT22;51043;52.406;9.690;2023-08-17T01:23:46;17.20;99.90
64634;DHT22;51043;52.406;9.690;2023-08-17T01:26:14;17.20;99.90
64634;DHT22;51043;52.406;9.690;2023-08-17T01:28:44;17.20;99.90
64634;DHT22;51043;52.406;9.690;2023-08-17T01:31:18;17.20;99.90
64634;DHT22;51043;52.406;9.690;2023-08-17T01:33:50;17.20;99.90
64634;DHT22;51043;52.406;9.690;2023-08-17T01:36:25;17.10;99.90
64634;DHT22;51043;52.406;9.690;2023-08-17T01:38:56;17.20;99.90
64634;DHT22;51043;52.406;9.690;2023-08-17T01:41:26;17.10;99.90
64634;DHT22;51043;52.406;9.690;2023-08-17T01:43:58;17.10;99.90
64634;DHT22;51043;52.406;9.690;2023-08-17T01:46:30;17.10;99.90
64634;DHT22;51043;52.406;9.690;2023-08-17T01:48:59;17.00;99.90
64634;DHT22;51043;52.406;9.690;2023-08-17T01:51:27;17.00;99.90
64634;DHT22;51043;52.406;9.690;2023-08-17T01:54:01;17.00;99.90
64634;DHT22;51043;52.406;9.690;2023-08-17T01:56:29;17.00;99.90
64634;DHT22;51043;52.406;9.690;2023-08-17T01:58:57;17.00;99.90
64634;DHT22;51043;52.406;9.690;2023-08-17T02:01:25;16.90;99.90
64634;DHT22;51043;52.406;9.690;2023-08-17T02:03:54;16.90;99.90
64634;DHT22;51043;52.406;9.690;2023-08-17T02:06:22;16.90;99.90
64634;DHT22;51043;52.406;9.690;2023-08-17T02:08:51;16.90;99.90
64634;DHT22;51043;52.406;9.690;2023-08-17T02:11:23;16.90;99.90
64634;DHT22;51043;52.406;9.690;2023-08-17T02:13:51;16.90;99.90
64634;DHT22;51043;52.406;9.690;2023-08-17T02:16:22;16.80;99.90
64634;DHT22;51043;52.406;9.690;2023-08-17T02:18:50;16.90;99.90
64634;DHT22;51043;52.406;9.690;2023-08-17T02:21:20;16.90;99.90
64634;DHT22;51043;52.406;9.690;2023-08-17T02:23:48;16.90;99.90
64634;DHT22;51043;52.406;9.690;2023-08-17T02:26:16;16.90;99.90
64634;DHT22;51043;52.406;9.690;2023-08-17T02:28:45;16.90;99.90
64634;DHT22;51043;52.406;9.690;2023-08-17T02:31:14;16.90;99.90
64634;DHT22;51043;52.406;9.690;2023-08-17T02:33:42;16.90;99.90
64634;DHT22;51043;52.406;9.690;2023-08-17T02:36:10;16.90;99.90
64634;DHT22;51043;52.406;9.690;2023-08-17T02:38:38;16.90;99.90
64634;DHT22;51043;52.406;9.690;2023-08-17T02:41:06;16.90;99.90
64634;DHT22;51043;52.406;9.690;2023-08-17T02:43:35;16.90;99.90
64634;DHT22;51043;52.406;9.690;2023-08-17T02:46:04;16.90;99.90
64634;DHT22;51043;52.406;9.690;2023-08-17T02:48:34;16.90;99.90
64634;DHT22;51043;52.406;9.690;2023-08-17T02:51:02;16.90;99.90
64634;DHT22;51043;52.406;9.690;2023-08-17T02:53:30;16.90;99.90
64634;DHT22;51043;52.406;9.690;2023-08-17T02:55:58;16.90;99.90
64634;DHT22;51043;52.406;9.690;2023-08-17T02:58:28;16.80;99.90
64634;DHT22;51043;52.406;9.690;2023-08-17T03:01:04;16.90;99.90
64634;DHT22;51043;52.406;9.690;2023-08-17T03:03:35;16.90;99.90
64634;DHT22;51043;52.406;9.690;2023-08-17T03:06:04;16.90;99.90
64634;DHT22;51043;52.406;9.690;2023-08-17T03:08:32;16.90;99.90
64634;DHT22;51043;52.406;9.690;2023-08-17T03:11:00;16.90;99.90
64634;DHT22;51043;52.406;9.690;2023-08-17T03:13:29;16.90;99.90
64634;DHT22;51043;52.406;9.690;2023-08-17T03:15:57;16.80;99.90
64634;DHT22;51043;52.406;9.690;2023-08-17T03:18:27;16.80;99.90
64634;DHT22;51043;52.406;9.690;2023-08-17T03:20:55;16.90;99.90
64634;DHT22;51043;52.406;9.690;2023-08-17T03:23:26;16.80;99.90
64634;DHT22;51043;52.406;9.690;2023-08-17T03:26:03;16.80;99.90
64634;DHT22;51043;52.406;9.690;2023-08-17T03:28:32;16.90;99.90
64634;DHT22;51043;52.406;9.690;2023-08-17T03:31:02;16.90;99.90
64634;DHT22;51043;52.406;9.690;2023-08-17T03:33:31;16.90;99.90
64634;DHT22;51043;52.406;9.690;2023-08-17T03:36:00;16.90;99.90
64634;DHT22;51043;52.406;9.690;2023-08-17T03:38:29;16.90;99.90
64634;DHT22;51043;52.406;9.690;2023-08-17T03:40:59;16.90;99.90
64634;DHT22;51043;52.406;9.690;2023-08-17T03:43:31;16.90;99.90
64634;DHT22;51043;52.406;9.690;2023-08-17T03:46:00;16.90;99.90
64634;DHT22;51043;52.406;9.690;2023-08-17T03:48:28;16.90;99.90
64634;DHT22;51043;52.406;9.690;2023-08-17T03:51:00;16.90;99.90
64634;DHT22;51043;52.406;9.690;2023-08-17T03:53:29;16.90;99.90
64634;DHT22;51043;52.406;9.690;2023-08-17T03:56:01;17.00;99.90
64634;DHT22;51043;52.406;9.690;2023-08-17T03:58:29;16.90;99.90
64634;DHT22;51043;52.406;9.690;2023-08-17T04:01:01;17.00;99.90
64634;DHT22;51043;52.406;9.690;2023-08-17T04:03:33;17.00;99.90
64634;DHT22;51043;52.406;9.690;2023-08-17T04:06:05;17.00;99.90
64634;DHT22;51043;52.406;9.690;2023-08-17T04:08:37;17.00;99.90
64634;DHT22;51043;52.406;9.690;2023-08-17T04:11:05;17.00;99.90
64634;DHT22;51043;52.406;9.690;2023-08-17T04:13:33;17.00;99.90
64634;DHT22;51043;52.406;9.690;2023-08-17T04:16:01;17.10;99.90
64634;DHT22;51043;52.406;9.690;2023-08-17T04:18:30;17.10;99.90
64634;DHT22;51043;52.406;9.690;2023-08-17T04:20:58;17.10;99.90
64634;DHT22;51043;52.406;9.690;2023-08-17T04:23:28;17.10;99.90
64634;DHT22;51043;52.406;9.690;2023-08-17T04:25:56;17.10;99.90
64634;DHT22;51043;52.406;9.690;2023-08-17T04:28:28;17.20;99.90
64634;DHT22;51043;52.406;9.690;2023-08-17T04:30:57;17.20;99.90
64634;DHT22;51043;52.406;9.690;2023-08-17T04:33:29;17.20;99.90
64634;DHT22;51043;52.406;9.690;2023-08-17T04:36:00;17.10;99.90
64634;DHT22;51043;52.406;9.690;2023-08-17T04:38:30;17.20;99.90
64634;DHT22;51043;52.406;9.690;2023-08-17T04:40:58;17.20;99.90
64634;DHT22;51043;52.406;9.690;2023-08-17T04:43:27;17.20;99.90
64634;DHT22;51043;52.406;9.690;2023-08-17T04:45:56;17.20;99.90
64634;DHT22;51043;52.406;9.690;2023-08-17T04:48:27;17.30;99.90
64634;DHT22;51043;52.406;9.690;2023-08-17T04:50:55;17.20;99.90
64634;DHT22;51043;52.406;9.690;2023-08-17T04:53:26;17.20;99.90
64634;DHT22;51043;52.406;9.690;2023-08-17T04:55:58;17.20;99.90
64634;DHT22;51043;52.406;9.690;2023-08-17T04:58:28;17.30;99.90
64634;DHT22;51043;52.406;9.690;2023-08-17T05:00:57;17.20;99.90
64634;DHT22;51043;52.406;9.690;2023-08-17T05:03:28;17.30;99.90
64634;DHT22;51043;52.406;9.690;2023-08-17T05:06:00;17.30;99.90
64634;DHT22;51043;52.406;9.690;2023-08-17T05:08:28;17.30;99.90
64634;DHT22;51043;52.406;9.690;2023-08-17T05:11:01;17.20;99.90
64634;DHT22;51043;52.406;9.690;2023-08-17T05:13:29;17.30;99.90
64634;DHT22;51043;52.406;9.690;2023-08-17T05:16:01;17.30;99.90
64634;DHT22;51043;52.406;9.690;2023-08-17T05:18:30;17.30;99.90
64634;DHT22;51043;52.406;9.690;2023-08-17T05:21:01;17.30;99.90
64634;DHT22;51043;52.406;9.690;2023-08-17T05:23:31;17.30;99.90
64634;DHT22;51043;52.406;9.690;2023-08-17T05:26:01;17.40;99.90
64634;DHT22;51043;52.406;9.690;2023-08-17T05:28:30;17.40;99.90
64634;DHT22;51043;52.406;9.690;2023-08-17T05:31:03;17.40;99.90
64634;DHT22;51043;52.406;9.690;2023-08-17T05:33:34;17.40;99.90
64634;DHT22;51043;52.406;9.690;2023-08-17T05:36:03;17.40;99.90
64634;DHT22;51043;52.406;9.690;2023-08-17T05:38:31;17.40;99.90
64634;DHT22;51043;52.406;9.690;2023-08-17T05:41:02;17.40;99.90
64634;DHT22;51043;52.406;9.690;2023-08-17T05:43:32;17.40;99.90
64634;DHT22;51043;52.406;9.690;2023-08-17T05:46:02;17.40;99.90
64634;DHT22;51043;52.406;9.690;2023-08-17T05:48:32;17.40;99.90
64634;DHT22;51043;52.406;9.690;2023-08-17T05:51:01;17.50;99.90
64634;DHT22;51043;52.406;9.690;2023-08-17T05:53:29;17.50;99.90
64634;DHT22;51043;52.406;9.690;2023-08-17T05:55:58;17.60;99.90
64634;DHT22;51043;52.406;9.690;2023-08-17T05:58:28;17.60;99.90
64634;DHT22;51043;52.406;9.690;2023-08-17T06:01:07;17.60;99.90
64634;DHT22;51043;52.406;9.690;2023-08-17T06:03:35;17.60;99.90
64634;DHT22;51043;52.406;9.690;2023-08-17T06:06:04;17.60;99.90
64634;DHT22;51043;52.406;9.690;2023-08-17T06:08:33;17.60;99.90
64634;DHT22;51043;52.406;9.690;2023-08-17T06:11:01;17.60;99.90
64634;DHT22;51043;52.406;9.690;2023-08-17T06:13:31;17.60;99.90
64634;DHT22;51043;52.406;9.690;2023-08-17T06:16:02;17.60;99.90
64634;DHT22;51043;52.406;9.690;2023-08-17T06:18:32;17.60;99.90
64634;DHT22;51043;52.406;9.690;2023-08-17T06:21:04;17.70;99.90
64634;DHT22;51043;52.406;9.690;2023-08-17T06:23:32;17.60;99.90
64634;DHT22;51043;52.406;9.690;2023-08-17T06:26:01;17.60;99.90
64634;DHT22;51043;52.406;9.690;2023-08-17T06:28:31;17.60;99.90
64634;DHT22;51043;52.406;9.690;2023-08-17T06:31:00;17.60;99.90
64634;DHT22;51043;52.406;9.690;2023-08-17T06:33:31;17.60;99.90
64634;DHT22;51043;52.406;9.690;2023-08-17T06:36:03;17.70;99.90
64634;DHT22;51043;52.406;9.690;2023-08-17T06:38:31;17.70;99.90
64634;DHT22;51043;52.406;9.690;2023-08-17T06:41:03;17.70;99.90
64634;DHT22;51043;52.406;9.690;2023-08-17T06:43:33;17.70;99.90
64634;DHT22;51043;52.406;9.690;2023-08-17T06:46:02;17.70;99.90
64634;DHT22;51043;52.406;9.690;2023-08-17T06:48:30;17.80;99.90
64634;DHT22;51043;52.406;9.690;2023-08-17T06:50:59;17.80;99.90
64634;DHT22;51043;52.406;9.690;2023-08-17T06:53:31;17.80;99.90
64634;DHT22;51043;52.406;9.690;2023-08-17T06:56:02;17.80;99.90
64634;DHT22;51043;52.406;9.690;2023-08-17T06:58:43;17.80;99.90
64634;DHT22;51043;52.406;9.690;2023-08-17T07:01:11;17.80;99.90
64634;DHT22;51043;52.406;9.690;2023-08-17T07:03:39;17.80;99.90
64634;DHT22;51043;52.406;9.690;2023-08-17T07:06:08;17.80;99.90
64634;DHT22;51043;52.406;9.690;2023-08-17T07:08:37;17.90;99.90
64634;DHT22;51043;52.406;9.690;2023-08-17T07:11:06;18.00;99.90
64634;DHT22;51043;52.406;9.690;2023-08-17T07:13:37;18.00;99.90
64634;DHT22;51043;52.406;9.690;2023-08-17T07:16:05;18.00;99.90
64634;DHT22;51043;52.406;9.690;2023-08-17T07:18:36;18.10;99.90
64634;DHT22;51043;52.406;9.690;2023-08-17T07:21:04;18.10;99.90
64634;DHT22;51043;52.406;9.690;2023-08-17T07:23:32;18.20;99.90
64634;DHT22;51043;52.406;9.690;2023-08-17T07:26:00;18.30;99.90
64634;DHT22;51043;52.406;9.690;2023-08-17T07:28:29;18.40;99.90
64634;DHT22;51043;52.406;9.690;2023-08-17T07:30:59;18.40;99.90
64634;DHT22;51043;52.406;9.690;2023-08-17T07:33:32;18.50;99.90
64634;DHT22;51043;52.406;9.690;2023-08-17T07:36:02;18.50;99.90
64634;DHT22;51043;52.406;9.690;2023-08-17T07:38:34;18.50;99.90
64634;DHT22;51043;52.406;9.690;2023-08-17T07:41:03;18.50;99.90
64634;DHT22;51043;52.406;9.690;2023-08-17T07:43:31;18.60;99.90
64634;DHT22;51043;52.406;9.690;2023-08-17T07:46:04;18.50;99.90
64634;DHT22;51043;52.406;9.690;2023-08-17T07:48:32;18.50;99.90
64634;DHT22;51043;52.406;9.690;2023-08-17T07:51:04;18.50;99.90
64634;DHT22;51043;52.406;9.690;2023-08-17T07:53:32;18.50;99.90
64634;DHT22;51043;52.406;9.690;2023-08-17T07:56:04;18.40;99.90
64634;DHT22;51043;52.406;9.690;2023-08-17T07:58:33;18.30;99.90
64634;DHT22;51043;52.406;9.690;2023-08-17T08:01:03;18.30;99.90
64634;DHT22;51043;52.406;9.690;2023-08-17T08:03:32;18.20;99.90
64634;DHT22;51043;52.406;9.690;2023-08-17T08:06:03;18.20;99.90
64634;DHT22;51043;52.406;9.690;2023-08-17T08:08:32;18.10;99.90
64634;DHT22;51043;52.406;9.690;2023-08-17T08:11:04;18.10;99.90
64634;DHT22;51043;52.406;9.690;2023-08-17T08:13:32;18.10;99.90
64634;DHT22;51043;52.406;9.690;2023-08-17T08:16:06;18.10;99.90
64634;DHT22;51043;52.406;9.690;2023-08-17T08:18:34;18.10;99.90
64634;DHT22;51043;52.406;9.690;2023-08-17T08:21:03;18.10;99.90
64634;DHT22;51043;52.406;9.690;2023-08-17T08:23:31;18.10;99.90
64634;DHT22;51043;52.406;9.690;2023-08-17T08:26:03;18.00;99.90
64634;DHT22;51043;52.406;9.690;2023-08-17T08:28:31;18.00;99.90
64634;DHT22;51043;52.406;9.690;2023-08-17T08:31:02;18.00;99.90
64634;DHT22;51043;52.406;9.690;2023-08-17T08:33:32;18.10;99.90
64634;DHT22;51043;52.406;9.690;2023-08-17T08:36:03;18.10;99.90
64634;DHT22;51043;52.406;9.690;2023-08-17T08:38:32;18.20;99.90
64634;DHT22;51043;52.406;9.690;2023-08-17T08:41:02;18.30;99.90
64634;DHT22;51043;52.406;9.690;2023-08-17T08:43:30;18.30;99.90
64634;DHT22;51043;52.406;9.690;2023-08-17T08:45:59;18.30;99.90
64634;DHT22;51043;52.406;9.690;2023-08-17T08:48:29;18.50;99.90
64634;DHT22;51043;52.406;9.690;2023-08-17T08:51:03;18.50;99.90
64634;DHT22;51043;52.406;9.690;2023-08-17T08:53:36;18.50;99.90
64634;DHT22;51043;52.406;9.690;2023-08-17T08:56:09;18.50;99.90
64634;DHT22;51043;52.406;9.690;2023-08-17T08:58:40;18.50;99.90
64634;DHT22;51043;52.406;9.690;2023-08-17T09:01:10;18.50;99.90
64634;DHT22;51043;52.406;9.690;2023-08-17T09:03:39;18.40;99.90
64634;DHT22;51043;52.406;9.690;2023-08-17T09:06:09;18.40;99.90
64634;DHT22;51043;52.406;9.690;2023-08-17T09:08:40;18.30;99.90
64634;DHT22;51043;52.406;9.690;2023-08-17T09:11:09;18.30;99.90
64634;DHT22;51043;52.406;9.690;2023-08-17T09:13:37;18.20;99.90
64634;DHT22;51043;52.406;9.690;2023-08-17T09:16:05;18.30;99.90
64634;DHT22;51043;52.406;9.690;2023-08-17T09:18:35;18.20;99.90
64634;DHT22;51043;52.406;9.690;2023-08-17T09:21:05;18.20;99.90
64634;DHT22;51043;52.406;9.690;2023-08-17T09:23:34;18.20;99.90
64634;DHT22;51043;52.406;9.690;2023-08-17T09:26:08;18.30;99.90
64634;DHT22;51043;52.406;9.690;2023-08-17T09:28:39;18.40;99.90
64634;DHT22;51043;52.406;9.690;2023-08-17T09:31:07;18.40;99.90
64634;DHT22;51043;52.406;9.690;2023-08-17T09:33:36;18.30;99.90
64634;DHT22;51043;52.406;9.690;2023-08-17T09:36:04;18.30;99.90
64634;DHT22;51043;52.406;9.690;2023-08-17T09:38:33;18.30;99.90
64634;DHT22;51043;52.406;9.690;2023-08-17T09:41:02;18.20;99.90
64634;DHT22;51043;52.406;9.690;2023-08-17T09:43:31;18.20;99.90
64634;DHT22;51043;52.406;9.690;2023-08-17T09:46:02;18.20;99.90
64634;DHT22;51043;52.406;9.690;2023-08-17T09:48:30;18.30;99.90
64634;DHT22;51043;52.406;9.690;2023-08-17T09:51:02;18.40;99.90
64634;DHT22;51043;52.406;9.690;2023-08-17T09:53:36;18.60;99.90
64634;DHT22;51043;52.406;9.690;2023-08-17T09:56:06;18.60;99.90
64634;DHT22;51043;52.406;9.690;2023-08-17T09:58:43;18.70;99.90
64634;DHT22;51043;52.406;9.690;2023-08-17T10:01:12;18.70;99.90
64634;DHT22;51043;52.406;9.690;2023-08-17T10:03:43;18.70;99.90
64634;DHT22;51043;52.406;9.690;2023-08-17T10:06:19;18.60;99.90
64634;DHT22;51043;52.406;9.690;2023-08-17T10:08:54;18.60;99.90
64634;DHT22;51043;52.406;9.690;2023-08-17T10:11:25;18.50;99.90
64634;DHT22;51043;52.406;9.690;2023-08-17T10:13:58;18.50;99.90
64634;DHT22;51043;52.406;9.690;2023-08-17T10:16:36;18.50;99.90
64634;DHT22;51043;52.406;9.690;2023-08-17T10:19:21;18.20;99.90
64634;DHT22;51043;52.406;9.690;2023-08-17T10:21:56;18.20;99.90
64634;DHT22;51043;52.406;9.690;2023-08-17T10:24:31;18.20;99.90
64634;DHT22;51043;52.406;9.690;2023-08-17T10:27:03;18.20;99.90
64634;DHT22;51043;52.406;9.690;2023-08-17T10:29:33;18.20;99.90
64634;DHT22;51043;52.406;9.690;2023-08-17T10:32:03;18.20;99.90
64634;DHT22;51043;52.406;9.690;2023-08-17T10:34:34;18.10;99.90
64634;DHT22;51043;52.406;9.690;2023-08-17T10:37:03;18.10;99.90
64634;DHT22;51043;52.406;9.690;2023-08-17T10:39:33;18.10;99.90
64634;DHT22;51043;52.406;9.690;2023-08-17T10:42:04;18.10;99.90
64634;DHT22;51043;52.406;9.690;2023-08-17T10:44:40;18.10;99.90
64634;DHT22;51043;52.406;9.690;2023-08-17T10:47:23;18.10;99.90
64634;DHT22;51043;52.406;9.690;2023-08-17T10:49:52;18.10;99.90
64634;DHT22;51043;52.406;9.690;2023-08-17T10:52:28;18.00;99.90
64634;DHT22;51043;52.406;9.690;2023-08-17T10:55:02;17.90;99.90
64634;DHT22;51043;52.406;9.690;2023-08-17T10:57:33;17.90;99.90
64634;DHT22;51043;52.406;9.690;2023-08-17T11:00:14;17.80;99.90
64634;DHT22;51043;52.406;9.690;2023-08-17T11:02:52;17.80;99.90
64634;DHT22;51043;52.406;9.690;2023-08-17T11:05:38;17.80;99.90
64634;DHT22;51043;52.406;9.690;2023-08-17T11:08:10;17.80;99.90
64634;DHT22;51043;52.406;9.690;2023-08-17T11:10:47;17.80;99.90
64634;DHT22;51043;52.406;9.690;2023-08-17T11:13:16;17.70;99.90
64634;DHT22;51043;52.406;9.690;2023-08-17T11:15:44;17.70;99.90
64634;DHT22;51043;52.406;9.690;2023-08-17T11:18:15;17.70;99.90
64634;DHT22;51043;52.406;9.690;2023-08-17T11:20:43;17.80;99.90
64634;DHT22;51043;52.406;9.690;2023-08-17T11:23:11;17.70;99.90
64634;DHT22;51043;52.406;9.690;2023-08-17T11:25:42;17.80;99.90
64634;DHT22;51043;52.406;9.690;2023-08-17T11:28:10;17.80;99.90
64634;DHT22;51043;52.406;9.690;2023-08-17T11:30:40;17.80;99.90
64634;DHT22;51043;52.406;9.690;2023-08-17T11:33:13;17.80;99.90
64634;DHT22;51043;52.406;9.690;2023-08-17T11:35:41;17.80;99.90
64634;DHT22;51043;52.406;9.690;2023-08-17T11:38:09;17.70;99.90
64634;DHT22;51043;52.406;9.690;2023-08-17T11:40:38;17.60;99.90
64634;DHT22;51043;52.406;9.690;2023-08-17T11:43:07;17.60;99.90
64634;DHT22;51043;52.406;9.690;2023-08-17T11:45:35;17.50;99.90
64634;DHT22;51043;52.406;9.690;2023-08-17T11:48:04;17.60;99.90
64634;DHT22;51043;52.406;9.690;2023-08-17T11:50:32;17.50;99.90
64634;DHT22;51043;52.406;9.690;2023-08-17T11:53:05;17.60;99.90
64634;DHT22;51043;52.406;9.690;2023-08-17T11:55:33;17.60;99.90
64634;DHT22;51043;52.406;9.690;2023-08-17T11:58:03;17.70;99.90
64634;DHT22;51043;52.406;9.690;2023-08-17T12:00:39;17.80;99.90
64634;DHT22;51043;52.406;9.690;2023-08-17T12:03:08;17.90;99.90
64634;DHT22;51043;52.406;9.690;2023-08-17T12:05:40;17.90;99.90
64634;DHT22;51043;52.406;9.690;2023-08-17T12:08:08;17.90;99.90
64634;DHT22;51043;52.406;9.690;2023-08-17T12:10:37;17.90;99.90
64634;DHT22;51043;52.406;9.690;2023-08-17T12:13:06;18.00;99.90
64634;DHT22;51043;52.406;9.690;2023-08-17T12:15:36;18.00;99.90
64634;DHT22;51043;52.406;9.690;2023-08-17T12:18:06;18.10;99.90
64634;DHT22;51043;52.406;9.690;2023-08-17T12:20:34;18.10;99.90
64634;DHT22;51043;52.406;9.690;2023-08-17T12:23:05;18.20;99.90
64634;DHT22;51043;52.406;9.690;2023-08-17T12:25:33;18.30;99.90
64634;DHT22;51043;52.406;9.690;2023-08-17T12:28:02;18.30;99.90
64634;DHT22;51043;52.406;9.690;2023-08-17T12:30:33;18.30;99.90
64634;DHT22;51043;52.406;9.690;2023-08-17T12:33:06;18.30;99.90
64634;DHT22;51043;52.406;9.690;2023-08-17T12:35:34;18.40;99.90
64634;DHT22;51043;52.406;9.690;2023-08-17T12:38:03;18.50;99.90
64634;DHT22;51043;52.406;9.690;2023-08-17T12:40:34;18.60;99.90
64634;DHT22;51043;52.406;9.690;2023-08-17T12:43:08;18.60;99.90
64634;DHT22;51043;52.406;9.690;2023-08-17T12:45:41;18.80;99.90
64634;DHT22;51043;52.406;9.690;2023-08-17T12:48:10;18.60;99.90
64634;DHT22;51043;52.406;9.690;2023-08-17T12:50:38;18.60;99.90
64634;DHT22;51043;52.406;9.690;2023-08-17T12:53:09;18.60;99.90
64634;DHT22;51043;52.406;9.690;2023-08-17T12:55:38;18.60;99.90
64634;DHT22;51043;52.406;9.690;2023-08-17T12:58:08;18.60;99.90
64634;DHT22;51043;52.406;9.690;2023-08-17T13:00:36;18.50;99.90
64634;DHT22;51043;52.406;9.690;2023-08-17T13:03:07;18.40;99.90
64634;DHT22;51043;52.406;9.690;2023-08-17T13:05:37;18.40;99.90
64634;DHT22;51043;52.406;9.690;2023-08-17T13:08:07;18.40;99.90
64634;DHT22;51043;52.406;9.690;2023-08-17T13:10:36;18.50;99.90
64634;DHT22;51043;52.406;9.690;2023-08-17T13:13:07;18.50;99.90
64634;DHT22;51043;52.406;9.690;2023-08-17T13:15:38;18.40;99.90
64634;DHT22;51043;52.406;9.690;2023-08-17T13:18:10;18.50;99.90
64634;DHT22;51043;52.406;9.690;2023-08-17T13:20:40;18.50;99.90
64634;DHT22;51043;52.406;9.690;2023-08-17T13:23:08;18.50;99.90
64634;DHT22;51043;52.406;9.690;2023-08-17T13:25:36;18.40;99.90
64634;DHT22;51043;52.406;9.690;2023-08-17T13:28:06;18.50;99.90
64634;DHT22;51043;52.406;9.690;2023-08-17T13:30:38;18.40;99.90
64634;DHT22;51043;52.406;9.690;2023-08-17T13:33:07;18.40;99.90
64634;DHT22;51043;52.406;9.690;2023-08-17T13:35:35;18.40;99.90
64634;DHT22;51043;52.406;9.690;2023-08-17T13:38:11;18.40;99.90
64634;DHT22;51043;52.406;9.690;2023-08-17T13:40:40;18.40;99.90
64634;DHT22;51043;52.406;9.690;2023-08-17T13:43:08;18.40;99.90
64634;DHT22;51043;52.406;9.690;2023-08-17T13:45:39;18.40;99.90
64634;DHT22;51043;52.406;9.690;2023-08-17T13:48:07;18.40;99.90
64634;DHT22;51043;52.406;9.690;2023-08-17T13:50:37;18.50;99.90
64634;DHT22;51043;52.406;9.690;2023-08-17T13:53:07;18.50;99.90
64634;DHT22;51043;52.406;9.690;2023-08-17T13:55:36;18.50;99.90
64634;DHT22;51043;52.406;9.690;2023-08-17T13:58:04;18.50;99.90
64634;DHT22;51043;52.406;9.690;2023-08-17T14:00:33;18.50;99.90
64634;DHT22;51043;52.406;9.690;2023-08-17T14:03:02;18.50;99.90
64634;DHT22;51043;52.406;9.690;2023-08-17T14:05:30;18.50;99.90
64634;DHT22;51043;52.406;9.690;2023-08-17T14:07:59;18.50;99.90
64634;DHT22;51043;52.406;9.690;2023-08-17T14:10:29;18.50;99.90
64634;DHT22;51043;52.406;9.690;2023-08-17T14:13:06;18.50;99.90
64634;DHT22;51043;52.406;9.690;2023-08-17T14:15:35;18.60;99.90
64634;DHT22;51043;52.406;9.690;2023-08-17T14:18:04;18.60;99.90
64634;DHT22;51043;52.406;9.690;2023-08-17T14:20:34;18.60;99.90
64634;DHT22;51043;52.406;9.690;2023-08-17T14:23:02;18.70;99.90
64634;DHT22;51043;52.406;9.690;2023-08-17T14:25:35;18.70;99.90
64634;DHT22;51043;52.406;9.690;2023-08-17T14:28:04;18.70;99.90
64634;DHT22;51043;52.406;9.690;2023-08-17T14:30:35;18.70;99.90
64634;DHT22;51043;52.406;9.690;2023-08-17T14:33:04;18.70;99.90
64634;DHT22;51043;52.406;9.690;2023-08-17T14:35:35;18.80;99.90
64634;DHT22;51043;52.406;9.690;2023-08-17T14:38:10;18.80;99.90
64634;DHT22;51043;52.406;9.690;2023-08-17T14:40:45;18.90;99.90
64634;DHT22;51043;52.406;9.690;2023-08-17T14:43:13;19.00;99.90
64634;DHT22;51043;52.406;9.690;2023-08-17T14:45:42;19.10;99.90
64634;DHT22;51043;52.406;9.690;2023-08-17T14:48:11;19.00;99.90
64634;DHT22;51043;52.406;9.690;2023-08-17T14:50:39;18.80;99.90
64634;DHT22;51043;52.406;9.690;2023-08-17T14:53:10;18.80;99.90
64634;DHT22;51043;52.406;9.690;2023-08-17T14:55:38;18.90;99.90
64634;DHT22;51043;52.406;9.690;2023-08-17T14:58:18;18.90;99.90
64634;DHT22;51043;52.406;9.690;2023-08-17T15:00:46;18.90;99.90
64634;DHT22;51043;52.406;9.690;2023-08-17T15:03:17;18.80;99.90
64634;DHT22;51043;52.406;9.690;2023-08-17T15:05:49;18.80;99.90
64634;DHT22;51043;52.406;9.690;2023-08-17T15:08:18;18.70;99.90
64634;DHT22;51043;52.406;9.690;2023-08-17T15:10:47;18.60;99.90
64634;DHT22;51043;52.406;9.690;2023-08-17T15:13:15;18.60;99.90
64634;DHT22;51043;52.406;9.690;2023-08-17T15:15:47;18.60;99.90
64634;DHT22;51043;52.406;9.690;2023-08-17T15:18:16;18.50;99.90
64634;DHT22;51043;52.406;9.690;2023-08-17T15:20:45;18.50;99.90
64634;DHT22;51043;52.406;9.690;2023-08-17T15:23:14;18.40;99.90
64634;DHT22;51043;52.406;9.690;2023-08-17T15:25:45;18.40;99.90
64634;DHT22;51043;52.406;9.690;2023-08-17T15:28:13;18.30;99.90
64634;DHT22;51043;52.406;9.690;2023-08-17T15:30:42;18.30;99.90
64634;DHT22;51043;52.406;9.690;2023-08-17T15:33:11;18.30;99.90
64634;DHT22;51043;52.406;9.690;2023-08-17T15:35:39;18.30;99.90
64634;DHT22;51043;52.406;9.690;2023-08-17T15:38:08;18.30;99.90
64634;DHT22;51043;52.406;9.690;2023-08-17T15:40:38;18.40;99.90
64634;DHT22;51043;52.406;9.690;2023-08-17T15:43:13;18.30;99.90
64634;DHT22;51043;52.406;9.690;2023-08-17T15:45:41;18.30;99.90
64634;DHT22;51043;52.406;9.690;2023-08-17T15:48:11;18.40;99.90